createdAt,value
2024-05-09T00:01:53.535Z,12.10
2024-05-09T00:04:23.625Z,12.10
2024-05-09T00:06:53.334Z,12.10
2024-05-09T00:09:23.710Z,12.00
2024-05-09T00:11:56.551Z,12.00
2024-05-09T00:14:26.765Z,12.00
2024-05-09T00:16:56.786Z,12.00
2024-05-09T00:19:28.009Z,12.00
2024-05-09T00:21:57.874Z,12.00
2024-05-09T00:24:27.591Z,12.00
2024-05-09T00:27:00.602Z,11.90
2024-05-09T00:29:30.666Z,12.00
2024-05-09T00:32:00.877Z,12.00
2024-05-09T00:34:31.911Z,11.90
2024-05-09T00:37:01.674Z,11.90
2024-05-09T00:39:31.627Z,12.00
2024-05-09T00:42:04.135Z,11.90
2024-05-09T00:44:34.573Z,11.90
2024-05-09T00:47:04.988Z,11.90
2024-05-09T00:49:36.053Z,11.90
2024-05-09T00:52:06.943Z,11.90
2024-05-09T00:54:36.958Z,11.90
2024-05-09T00:57:09.535Z,11.90
2024-05-09T00:59:39.507Z,11.90
2024-05-09T01:02:09.455Z,11.90
2024-05-09T01:04:39.387Z,11.80
2024-05-09T01:07:09.480Z,11.80
2024-05-09T01:09:41.983Z,11.80
2024-05-09T01:12:14.519Z,11.80
2024-05-09T01:14:44.725Z,11.80
2024-05-09T01:17:15.213Z,11.80
2024-05-09T01:19:46.926Z,11.80
2024-05-09T01:22:16.791Z,11.70
2024-05-09T01:24:49.713Z,11.70
2024-05-09T01:27:19.396Z,11.80
2024-05-09T01:29:49.183Z,11.80
2024-05-09T01:32:19.066Z,11.70
2024-05-09T01:34:49.125Z,11.70
2024-05-09T01:37:18.854Z,11.70
2024-05-09T01:39:51.607Z,11.70
2024-05-09T01:42:21.365Z,11.70
2024-05-09T01:44:51.115Z,11.70
2024-05-09T01:47:21.288Z,11.70
2024-05-09T01:49:51.946Z,11.70
2024-05-09T01:52:22.595Z,11.70
2024-05-09T01:54:54.960Z,11.70
2024-05-09T01:57:24.711Z,11.70
2024-05-09T01:59:54.842Z,11.60
2024-05-09T02:02:24.633Z,11.60
2024-05-09T02:04:55.070Z,11.60
2024-05-09T02:07:24.867Z,11.60
2024-05-09T02:09:57.248Z,11.60
2024-05-09T02:12:29.964Z,11.60
2024-05-09T02:14:59.988Z,11.50
2024-05-09T02:17:29.857Z,11.60
2024-05-09T02:19:59.793Z,11.60
2024-05-09T02:22:29.482Z,11.60
2024-05-09T02:25:02.774Z,11.60
2024-05-09T02:27:32.549Z,11.60
2024-05-09T02:30:04.739Z,11.50
2024-05-09T02:32:36.449Z,11.60
2024-05-09T02:35:06.581Z,11.50
2024-05-09T02:37:33.841Z,11.50
2024-05-09T02:40:09.125Z,11.50
2024-05-09T02:42:38.602Z,11.50
2024-05-09T02:45:09.181Z,11.60
2024-05-09T02:47:37.374Z,11.60
2024-05-09T02:50:08.360Z,11.60
2024-05-09T02:52:35.725Z,11.50
2024-05-09T02:55:08.320Z,11.60
2024-05-09T02:57:35.489Z,11.50
2024-05-09T03:00:06.192Z,11.50
2024-05-09T03:02:35.517Z,11.50
2024-05-09T03:05:05.377Z,11.50
2024-05-09T03:07:32.755Z,11.50
2024-05-09T03:10:03.360Z,11.50
2024-05-09T03:12:35.816Z,11.50
2024-05-09T03:15:07.689Z,11.50
2024-05-09T03:17:35.499Z,11.50
2024-05-09T03:20:11.660Z,11.50
2024-05-09T03:22:44.929Z,11.50
2024-05-09T03:25:14.882Z,11.40
2024-05-09T03:27:44.610Z,11.40
2024-05-09T03:30:26.031Z,11.30
2024-05-09T03:33:01.553Z,11.40
2024-05-09T03:35:31.578Z,11.40
2024-05-09T03:38:01.626Z,11.40
2024-05-09T03:40:31.512Z,11.40
2024-05-09T03:43:01.328Z,11.40
2024-05-09T03:45:32.057Z,11.40
2024-05-09T03:47:59.465Z,11.40
2024-05-09T03:50:33.958Z,11.40
2024-05-09T03:53:03.230Z,11.50
2024-05-09T03:55:33.615Z,11.40
2024-05-09T03:58:03.447Z,11.40
2024-05-09T04:00:38.077Z,11.50
2024-05-09T04:03:09.664Z,11.50
2024-05-09T04:05:43.038Z,11.50
2024-05-09T04:08:13.922Z,11.50
2024-05-09T04:10:44.348Z,11.50
2024-05-09T04:13:14.720Z,11.40
2024-05-09T04:15:44.565Z,11.40
2024-05-09T04:18:12.782Z,11.40
2024-05-09T04:20:43.178Z,11.40
2024-05-09T04:23:12.256Z,11.50
2024-05-09T04:25:45.470Z,11.50
2024-05-09T04:28:15.830Z,11.50
2024-05-09T04:30:46.463Z,11.50
2024-05-09T04:33:15.350Z,11.50
2024-05-09T04:35:45.800Z,11.50
2024-05-09T04:38:14.618Z,11.60
2024-05-09T04:40:45.481Z,11.50
2024-05-09T04:43:19.678Z,11.60
2024-05-09T04:45:49.771Z,11.60
2024-05-09T04:48:17.358Z,11.60
2024-05-09T04:50:47.939Z,11.60
2024-05-09T04:53:17.528Z,11.60
2024-05-09T04:55:47.643Z,11.70
2024-05-09T04:58:17.715Z,11.70
2024-05-09T05:00:47.772Z,11.80
2024-05-09T05:03:16.658Z,11.80
2024-05-09T05:05:47.258Z,11.80
2024-05-09T05:08:16.130Z,11.90
2024-05-09T05:10:48.665Z,12.00
2024-05-09T05:13:20.970Z,12.10
2024-05-09T05:15:55.755Z,12.20
2024-05-09T05:18:24.806Z,12.30
2024-05-09T05:20:54.903Z,12.30
2024-05-09T05:23:23.137Z,12.30
2024-05-09T05:25:55.367Z,12.30
2024-05-09T05:28:25.555Z,12.40
2024-05-09T05:30:55.399Z,12.40
2024-05-09T05:33:25.662Z,12.50
2024-05-09T05:35:52.981Z,12.50
2024-05-09T05:38:25.024Z,12.50
2024-05-09T05:40:54.989Z,12.50
2024-05-09T05:43:27.735Z,12.50
2024-05-09T05:45:54.888Z,12.60
2024-05-09T05:48:24.875Z,12.70
2024-05-09T05:50:52.277Z,12.80
2024-05-09T05:53:22.420Z,12.80
2024-05-09T05:55:50.229Z,12.90
2024-05-09T05:58:20.356Z,13.00
2024-05-09T06:00:57.547Z,13.00
2024-05-09T06:03:24.727Z,13.10
2024-05-09T06:05:54.691Z,13.20
2024-05-09T06:08:22.123Z,13.40
2024-05-09T06:10:52.271Z,13.40
2024-05-09T06:13:21.087Z,13.40
2024-05-09T06:15:53.420Z,13.50
2024-05-09T06:18:21.182Z,13.60
2024-05-09T06:20:51.614Z,13.70
2024-05-09T06:23:18.900Z,13.80
2024-05-09T06:25:48.910Z,13.90
2024-05-09T06:28:16.298Z,14.00
2024-05-09T06:30:45.997Z,14.20
2024-05-09T06:33:16.756Z,14.20
2024-05-09T06:35:47.218Z,14.40
2024-05-09T06:38:14.546Z,14.40
2024-05-09T06:40:45.092Z,14.40
2024-05-09T06:43:13.061Z,14.40
2024-05-09T06:45:43.370Z,14.40
2024-05-09T06:48:10.787Z,14.50
2024-05-09T06:50:44.248Z,14.60
2024-05-09T06:53:14.821Z,14.70
2024-05-09T06:55:45.301Z,14.70
2024-05-09T06:58:13.207Z,14.90
2024-05-09T07:00:42.977Z,15.10
2024-05-09T07:03:11.127Z,15.20
2024-05-09T07:05:46.030Z,15.40
2024-05-09T07:08:14.191Z,15.50
2024-05-09T07:10:44.532Z,15.30
2024-05-09T07:13:14.180Z,15.10
2024-05-09T07:15:45.123Z,15.10
2024-05-09T07:18:15.669Z,15.10
2024-05-09T07:20:49.862Z,15.10
2024-05-09T07:23:18.220Z,14.90
2024-05-09T07:25:48.453Z,14.90
2024-05-09T07:28:17.017Z,14.80
2024-05-09T07:30:47.859Z,15.20
2024-05-09T07:33:19.543Z,15.60
2024-05-09T07:35:53.414Z,15.80
2024-05-09T07:38:20.924Z,15.80
2024-05-09T07:40:51.394Z,15.90
2024-05-09T07:43:19.143Z,16.00
2024-05-09T07:45:53.598Z,16.00
2024-05-09T07:53:07.553Z,16.30
2024-05-09T07:53:50.808Z,16.20
2024-05-09T07:56:24.380Z,16.40
2024-05-09T07:58:52.921Z,16.90
2024-05-09T08:01:25.860Z,17.20
2024-05-09T08:03:53.558Z,17.40
2024-05-09T08:06:27.283Z,17.30
2024-05-09T08:08:54.810Z,17.20
2024-05-09T08:11:24.688Z,17.30
2024-05-09T08:13:52.285Z,17.20
2024-05-09T08:16:22.183Z,16.90
2024-05-09T08:18:49.691Z,16.60
2024-05-09T08:21:19.515Z,16.50
2024-05-09T08:23:49.434Z,16.40
2024-05-09T08:26:19.851Z,16.50
2024-05-09T08:28:47.414Z,16.70
2024-05-09T08:31:17.269Z,16.70
2024-05-09T08:33:45.322Z,16.50
2024-05-09T08:36:16.311Z,16.30
2024-05-09T08:38:43.705Z,16.30
2024-05-09T08:41:18.807Z,16.30
2024-05-09T08:43:46.907Z,16.20
2024-05-09T08:46:18.934Z,16.20
2024-05-09T08:48:48.441Z,16.10
2024-05-09T08:51:18.564Z,16.20
2024-05-09T08:53:45.749Z,16.20
2024-05-09T08:56:20.168Z,16.20
2024-05-09T08:58:50.049Z,16.20
2024-05-09T09:01:21.576Z,16.30
2024-05-09T09:03:51.019Z,16.20
2024-05-09T09:06:24.343Z,16.10
2024-05-09T09:08:54.142Z,16.10
2024-05-09T09:11:26.644Z,16.20
2024-05-09T09:13:54.017Z,16.40
2024-05-09T09:16:35.345Z,16.60
2024-05-09T09:19:03.533Z,16.80
2024-05-09T09:21:33.432Z,16.90
2024-05-09T09:24:00.633Z,16.80
2024-05-09T09:26:33.478Z,16.80
2024-05-09T09:29:02.047Z,16.70
2024-05-09T09:31:33.168Z,16.70
2024-05-09T09:34:07.181Z,16.80
2024-05-09T09:36:40.951Z,16.70
2024-05-09T09:39:12.357Z,16.60
2024-05-09T09:41:49.945Z,16.60
2024-05-09T09:44:24.920Z,16.50
2024-05-09T09:46:58.841Z,16.50
2024-05-09T09:49:26.863Z,16.50
2024-05-09T09:51:57.180Z,16.60
2024-05-09T09:54:26.093Z,16.70
2024-05-09T09:56:59.177Z,16.70
2024-05-09T09:59:26.526Z,16.80
2024-05-09T10:01:56.454Z,17.10
2024-05-09T10:04:24.208Z,17.70
2024-05-09T10:06:57.163Z,17.60
2024-05-09T10:09:24.674Z,17.70
2024-05-09T10:11:59.985Z,17.50
2024-05-09T10:14:40.189Z,17.50
2024-05-09T10:17:11.772Z,17.40
2024-05-09T10:19:39.343Z,17.30
2024-05-09T10:22:10.301Z,17.40
2024-05-09T10:24:48.549Z,17.40
2024-05-09T10:27:19.867Z,17.40
2024-05-09T10:29:57.860Z,17.50
2024-05-09T10:32:29.688Z,17.60
2024-05-09T10:35:01.283Z,18.40
2024-05-09T10:37:31.597Z,19.00
2024-05-09T10:39:59.722Z,19.30
2024-05-09T10:42:31.363Z,19.20
2024-05-09T10:45:02.354Z,19.60
2024-05-09T10:47:33.230Z,19.40
2024-05-09T10:50:01.202Z,18.80
2024-05-09T10:52:31.117Z,18.50
2024-05-09T10:54:59.936Z,18.20
2024-05-09T10:57:40.917Z,18.10
2024-05-09T11:00:19.462Z,18.10
2024-05-09T11:02:58.164Z,18.00
2024-05-09T11:05:26.334Z,18.70
2024-05-09T11:07:56.399Z,18.80
2024-05-09T11:10:27.928Z,18.70
2024-05-09T11:13:03.777Z,18.90
2024-05-09T11:15:41.458Z,19.10
2024-05-09T11:18:25.451Z,18.80
2024-05-09T11:20:54.625Z,19.30
2024-05-09T11:23:26.096Z,19.70
2024-05-09T11:25:54.811Z,19.50
2024-05-09T11:28:25.259Z,19.10
2024-05-09T11:31:05.531Z,19.10
2024-05-09T11:33:35.335Z,19.00
2024-05-09T11:36:02.691Z,19.00
2024-05-09T11:38:32.628Z,19.50
2024-05-09T11:41:00.048Z,19.50
2024-05-09T11:43:30.310Z,20.00
2024-05-09T11:46:05.872Z,19.90
2024-05-09T11:48:36.208Z,19.90
2024-05-09T11:51:03.948Z,19.90
2024-05-09T11:53:33.934Z,19.50
2024-05-09T11:56:01.126Z,20.00
2024-05-09T11:58:34.327Z,20.10
2024-05-09T12:01:05.378Z,20.30
2024-05-09T12:03:37.900Z,19.90
2024-05-09T12:06:06.054Z,20.10
2024-05-09T12:08:36.579Z,20.60
2024-05-09T12:11:04.525Z,20.90
2024-05-09T12:13:34.343Z,21.00
2024-05-09T12:16:05.456Z,21.20
2024-05-09T12:18:38.108Z,21.20
2024-05-09T12:21:06.039Z,20.90
2024-05-09T12:23:36.126Z,20.90
2024-05-09T12:26:04.091Z,21.40
2024-05-09T12:28:34.563Z,21.00
2024-05-09T12:31:05.122Z,20.90
2024-05-09T12:33:35.753Z,20.40
2024-05-09T12:36:03.594Z,20.50
2024-05-09T12:38:33.381Z,20.80
2024-05-09T12:41:00.856Z,21.10
2024-05-09T12:43:30.691Z,21.30
2024-05-09T12:45:58.257Z,21.40
2024-05-09T12:48:30.782Z,21.40
2024-05-09T12:50:58.074Z,21.30
2024-05-09T12:53:28.688Z,21.20
2024-05-09T12:56:00.119Z,21.40
2024-05-09T12:58:35.078Z,21.40
2024-05-09T13:01:02.542Z,21.60
2024-05-09T13:03:35.160Z,21.80
2024-05-09T13:06:02.443Z,21.70
2024-05-09T13:08:32.643Z,21.70
2024-05-09T13:10:59.925Z,21.20
2024-05-09T13:13:30.790Z,20.60
2024-05-09T13:15:58.385Z,20.10
2024-05-09T13:18:28.749Z,19.90
2024-05-09T13:20:58.584Z,19.60
2024-05-09T13:23:28.297Z,19.50
2024-05-09T13:25:55.810Z,19.30
2024-05-09T13:28:25.994Z,19.20
2024-05-09T13:30:54.206Z,19.00
2024-05-09T13:33:24.113Z,18.90
2024-05-09T13:35:52.042Z,19.00
2024-05-09T13:38:24.413Z,18.80
2024-05-09T13:40:52.111Z,18.70
2024-05-09T13:43:23.383Z,18.60
2024-05-09T13:45:51.978Z,18.60
2024-05-09T13:48:22.501Z,18.50
2024-05-09T13:50:50.308Z,18.30
2024-05-09T13:53:20.039Z,18.40
2024-05-09T13:55:50.217Z,18.40
2024-05-09T13:58:20.839Z,19.00
2024-05-09T14:00:49.312Z,19.40
2024-05-09T14:03:21.541Z,19.70
2024-05-09T14:05:50.413Z,19.90
2024-05-09T14:08:22.257Z,20.00
2024-05-09T14:10:54.205Z,20.10
2024-05-09T14:13:24.821Z,20.10
2024-05-09T14:15:52.167Z,20.00
2024-05-09T14:18:22.683Z,20.00
2024-05-09T14:20:50.280Z,19.90
2024-05-09T14:23:20.865Z,19.60
2024-05-09T14:25:53.902Z,19.40
2024-05-09T14:28:26.256Z,19.00
2024-05-09T14:30:57.337Z,18.80
2024-05-09T14:33:27.873Z,18.70
2024-05-09T14:35:55.278Z,18.60
2024-05-09T14:38:25.829Z,18.60
2024-05-09T14:40:56.214Z,18.60
2024-05-09T14:43:26.514Z,18.60
2024-05-09T14:45:54.188Z,18.60
2024-05-09T14:48:24.167Z,18.50
2024-05-09T14:50:53.053Z,18.50
2024-05-09T14:53:23.657Z,18.50
2024-05-09T14:55:51.247Z,18.60
2024-05-09T14:58:24.717Z,18.80
2024-05-09T15:00:52.942Z,19.00
2024-05-09T15:03:23.636Z,19.10
2024-05-09T15:05:51.882Z,19.10
2024-05-09T15:08:22.776Z,19.00
2024-05-09T15:10:52.254Z,19.00
2024-05-09T15:13:25.486Z,18.90
2024-05-09T15:15:53.279Z,18.70
2024-05-09T15:18:23.279Z,18.60
2024-05-09T15:20:52.307Z,18.50
2024-05-09T15:23:22.560Z,18.30
2024-05-09T15:25:50.547Z,18.20
2024-05-09T15:28:20.739Z,18.00
2024-05-09T15:30:50.862Z,17.90
2024-05-09T15:33:20.952Z,17.90
2024-05-09T15:35:48.275Z,17.70
2024-05-09T15:38:19.314Z,17.70
2024-05-09T15:40:47.880Z,17.60
2024-05-09T15:43:18.179Z,17.40
2024-05-09T15:45:46.426Z,17.40
2024-05-09T15:48:19.204Z,17.20
2024-05-09T15:50:47.451Z,17.20
2024-05-09T15:53:17.848Z,17.20
2024-05-09T15:55:45.167Z,17.10
2024-05-09T15:58:16.088Z,17.10
2024-05-09T16:00:45.593Z,17.10
2024-05-09T16:03:21.199Z,17.20
2024-05-09T16:05:48.958Z,17.10
2024-05-09T16:08:19.229Z,17.20
2024-05-09T16:10:47.720Z,17.10
2024-05-09T16:13:19.804Z,17.10
2024-05-09T16:15:48.311Z,17.10
2024-05-09T16:18:21.618Z,17.10
2024-05-09T16:20:50.252Z,17.10
2024-05-09T16:23:20.327Z,17.10
2024-05-09T16:25:48.392Z,17.10
2024-05-09T16:28:19.403Z,17.10
2024-05-09T16:30:47.520Z,17.10
2024-05-09T16:33:23.702Z,17.10
2024-05-09T16:35:51.452Z,17.10
2024-05-09T16:38:22.009Z,17.00
2024-05-09T16:40:51.137Z,17.00
2024-05-09T16:43:21.799Z,17.00
2024-05-09T16:45:49.713Z,16.90
2024-05-09T16:48:23.495Z,16.90
2024-05-09T16:50:50.685Z,16.80
2024-05-09T16:53:22.414Z,16.70
2024-05-09T16:55:49.726Z,16.70
2024-05-09T16:58:19.656Z,16.60
2024-05-09T17:00:47.077Z,16.60
2024-05-09T17:03:17.199Z,16.50
2024-05-09T17:05:48.030Z,16.50
2024-05-09T17:08:20.439Z,16.40
2024-05-09T17:10:57.450Z,16.30
2024-05-09T17:13:28.064Z,16.30
2024-05-09T17:15:58.444Z,16.30
2024-05-09T17:18:29.107Z,16.30
2024-05-09T17:21:00.250Z,16.30
2024-05-09T17:23:34.334Z,16.20
2024-05-09T17:26:02.541Z,16.20
2024-05-09T17:28:32.498Z,16.10
2024-05-09T17:31:01.088Z,16.00
2024-05-09T17:33:32.069Z,16.00
2024-05-09T17:36:02.159Z,15.90
2024-05-09T17:38:32.383Z,15.80
2024-05-09T17:40:59.788Z,15.80
2024-05-09T17:43:31.229Z,15.70
2024-05-09T17:45:58.681Z,15.70
2024-05-09T17:48:28.623Z,15.70
2024-05-09T17:50:55.934Z,15.60
2024-05-09T17:53:28.368Z,15.60
2024-05-09T17:55:56.504Z,15.60
2024-05-09T17:58:26.427Z,15.50
2024-05-09T18:00:54.072Z,15.60
2024-05-09T18:03:26.241Z,15.50
2024-05-09T18:05:53.809Z,15.50
2024-05-09T18:08:23.764Z,15.40
2024-05-09T18:10:55.340Z,15.30
2024-05-09T18:13:26.257Z,15.30
2024-05-09T18:15:53.748Z,15.20
2024-05-09T18:18:23.646Z,15.10
2024-05-09T18:20:53.899Z,15.00
2024-05-09T18:23:23.691Z,14.80
2024-05-09T18:25:55.057Z,14.70
2024-05-09T18:28:25.370Z,14.60
2024-05-09T18:30:52.696Z,14.50
2024-05-09T18:33:24.383Z,14.40
2024-05-09T18:35:51.881Z,14.20
2024-05-09T18:38:25.543Z,14.00
2024-05-09T18:40:55.524Z,13.90
2024-05-09T18:43:31.154Z,13.90
2024-05-09T18:46:06.428Z,13.80
2024-05-09T18:48:39.684Z,13.80
2024-05-09T18:51:06.965Z,13.70
2024-05-09T18:53:36.759Z,13.60
2024-05-09T18:56:07.796Z,13.50
2024-05-09T18:58:37.640Z,13.50
2024-05-09T19:01:05.874Z,13.40
2024-05-09T19:03:36.609Z,13.30
2024-05-09T19:06:05.353Z,13.20
2024-05-09T19:08:36.677Z,13.10
2024-05-09T19:11:06.639Z,13.00
2024-05-09T19:13:36.495Z,12.90
2024-05-09T19:16:04.457Z,12.80
2024-05-09T19:18:34.431Z,12.80
2024-05-09T19:21:01.770Z,12.70
2024-05-09T19:23:38.064Z,12.60
2024-05-09T19:26:08.866Z,12.60
2024-05-09T19:28:40.437Z,12.60
2024-05-09T19:31:07.633Z,12.50
2024-05-09T19:33:38.375Z,12.40
2024-05-09T19:36:06.994Z,12.30
2024-05-09T19:38:38.626Z,12.30
2024-05-09T19:41:08.599Z,12.20
2024-05-09T19:43:39.449Z,12.10
2024-05-09T19:46:06.781Z,12.00
2024-05-09T19:48:36.663Z,12.00
2024-05-09T19:51:04.027Z,11.90
2024-05-09T19:53:34.015Z,11.80
2024-05-09T19:56:02.217Z,11.80
2024-05-09T19:58:36.861Z,11.70
2024-05-09T20:01:04.586Z,11.70
2024-05-09T20:03:37.712Z,11.70
2024-05-09T20:06:05.324Z,11.60
2024-05-09T20:08:35.021Z,11.60
2024-05-09T20:11:02.272Z,11.50
2024-05-09T20:13:34.777Z,11.40
2024-05-09T20:16:02.212Z,11.30
2024-05-09T20:18:32.079Z,11.30
2024-05-09T20:21:00.134Z,11.30
2024-05-09T20:23:30.509Z,11.20
2024-05-09T20:25:58.625Z,11.20
2024-05-09T20:28:28.594Z,11.20
2024-05-09T20:30:58.718Z,11.10
2024-05-09T20:33:29.524Z,11.10
2024-05-09T20:36:01.636Z,11.10
2024-05-09T20:38:32.171Z,11.10
2024-05-09T20:40:59.316Z,11.00
2024-05-09T20:43:29.198Z,11.00
2024-05-09T20:45:59.230Z,11.00
2024-05-09T20:48:29.358Z,10.90
2024-05-09T20:50:57.188Z,10.90
2024-05-09T20:53:27.010Z,10.80
2024-05-09T20:55:54.451Z,10.80
2024-05-09T20:58:25.211Z,10.70
2024-05-09T21:00:53.077Z,10.70
2024-05-09T21:03:25.678Z,10.60
2024-05-09T21:05:54.219Z,10.60
2024-05-09T21:08:25.214Z,10.60
2024-05-09T21:10:53.050Z,10.50
2024-05-09T21:13:22.920Z,10.50
2024-05-09T21:15:50.363Z,10.50
2024-05-09T21:18:20.292Z,10.40
2024-05-09T21:20:50.435Z,10.30
2024-05-09T21:23:22.720Z,10.30
2024-05-09T21:25:50.807Z,10.30
2024-05-09T21:28:20.906Z,10.40
2024-05-09T21:30:48.524Z,10.40
2024-05-09T21:33:19.556Z,10.30
2024-05-09T21:35:49.335Z,10.30
2024-05-09T21:38:19.495Z,10.20
2024-05-09T21:40:46.841Z,10.20
2024-05-09T21:43:16.907Z,10.10
2024-05-09T21:45:44.604Z,10.10
2024-05-09T21:48:15.584Z,10.10
2024-05-09T21:50:43.470Z,10.10
2024-05-09T21:53:16.493Z,10.00
2024-05-09T21:55:43.652Z,10.00
2024-05-09T21:58:14.711Z,10.00
2024-05-09T22:00:45.512Z,10.00
2024-05-09T22:03:17.336Z,10.00
2024-05-09T22:05:45.614Z,10.00
2024-05-09T22:08:18.342Z,9.90
2024-05-09T22:10:45.709Z,9.90
2024-05-09T22:13:16.827Z,9.90
2024-05-09T22:15:44.407Z,9.90
2024-05-09T22:18:14.401Z,9.80
2024-05-09T22:20:45.349Z,9.70
2024-05-09T22:23:18.868Z,9.70
2024-05-09T22:25:46.041Z,9.70
2024-05-09T22:28:18.237Z,9.70
2024-05-09T22:30:47.126Z,9.70
2024-05-09T22:33:18.018Z,9.70
2024-05-09T22:35:46.241Z,9.70
2024-05-09T22:38:20.391Z,9.60
2024-05-09T22:40:49.840Z,9.60
2024-05-09T22:43:23.988Z,9.60
2024-05-09T22:45:52.947Z,9.60
2024-05-09T22:48:23.682Z,9.60
2024-05-09T22:50:51.672Z,9.50
2024-05-09T22:53:24.720Z,9.40
2024-05-09T22:55:52.165Z,9.40
2024-05-09T22:58:22.368Z,9.40
2024-05-09T23:00:50.091Z,9.40
2024-05-09T23:03:21.906Z,9.40
2024-05-09T23:05:49.742Z,9.40
2024-05-09T23:08:19.502Z,9.40
2024-05-09T23:10:49.372Z,9.40
2024-05-09T23:13:19.451Z,9.30
2024-05-09T23:15:47.199Z,9.20
2024-05-09T23:18:17.013Z,9.20
2024-05-09T23:20:44.257Z,9.20
2024-05-09T23:23:14.024Z,9.10
2024-05-09T23:25:41.890Z,9.10
2024-05-09T23:28:14.935Z,9.10
2024-05-09T23:30:42.600Z,9.00
2024-05-09T23:33:15.282Z,9.10
2024-05-09T23:35:43.980Z,9.10
2024-05-09T23:38:15.178Z,9.10
2024-05-09T23:40:43.188Z,9.00
2024-05-09T23:43:16.993Z,9.00
2024-05-09T23:45:44.290Z,9.00
2024-05-09T23:48:14.539Z,8.90
2024-05-09T23:50:41.976Z,8.90
2024-05-09T23:53:11.781Z,8.90
2024-05-09T23:55:39.686Z,8.80
2024-05-09T23:58:11.331Z,8.80
